Cushing, Utah
Current Conditions -  °F | °C
As of 11:53 PM on Wednesday 22 Oct 2014 (Local Time) from KSLC Reporting Station
Few Clouds Few Clouds  
Wind Chill: 44°   Ceiling: Unl
Heat Index: 48°   Visibility: 10mi
Dew Point: 34°   Wind: 8mph
Humidity: 58%   Direction: 160°SSE
Pressure: 30.15"   Gusts: NA
Location:  40.615°N, 111.891°W
Report Text: KSLC 230553Z 16007KT 10SM FEW200 09/01 A3015 RMK AO2 SLP191 T00890011 10156 20083 58006
Loading
Personal Weather Stations






























Interactive Weather Map
Tropical Storm Tracking
New forecast layout! Learn more

10-Day Weather Forecast

Advertisements
Track Severe Weather on mobile